sensor_id;sensor_type;location;lat;lon;timestamp;temperature;humidity
47114;DHT22;32867;51.556;6.832;2023-05-19T00:04:21;12.00;90.00
47114;DHT22;32867;51.556;6.832;2023-05-19T00:09:32;11.80;90.50
47114;DHT22;32867;51.556;6.832;2023-05-19T00:14:35;11.80;91.00
47114;DHT22;32867;51.556;6.832;2023-05-19T00:19:36;11.80;91.10
47114;DHT22;32867;51.556;6.832;2023-05-19T00:24:37;11.80;91.40
47114;DHT22;32867;51.556;6.832;2023-05-19T00:29:38;11.80;91.80
47114;DHT22;32867;51.556;6.832;2023-05-19T00:34:39;11.70;91.90
47114;DHT22;32867;51.556;6.832;2023-05-19T00:39:41;11.70;92.00
47114;DHT22;32867;51.556;6.832;2023-05-19T00:44:42;11.70;92.00
47114;DHT22;32867;51.556;6.832;2023-05-19T00:49:43;11.70;92.40
47114;DHT22;32867;51.556;6.832;2023-05-19T00:54:44;11.70;92.30
47114;DHT22;32867;51.556;6.832;2023-05-19T00:59:49;11.60;93.30
47114;DHT22;32867;51.556;6.832;2023-05-19T01:04:50;11.50;93.60
47114;DHT22;32867;51.556;6.832;2023-05-19T01:09:52;11.40;94.10
47114;DHT22;32867;51.556;6.832;2023-05-19T01:14:54;11.40;94.20
47114;DHT22;32867;51.556;6.832;2023-05-19T01:30:36;11.30;96.20
47114;DHT22;32867;51.556;6.832;2023-05-19T01:35:41;11.20;96.40
47114;DHT22;32867;51.556;6.832;2023-05-19T01:40:43;11.10;96.80
47114;DHT22;32867;51.556;6.832;2023-05-19T01:45:48;11.10;97.30
47114;DHT22;32867;51.556;6.832;2023-05-19T01:50:49;11.00;98.00
47114;DHT22;32867;51.556;6.832;2023-05-19T01:55:52;10.90;98.40
47114;DHT22;32867;51.556;6.832;2023-05-19T02:16:29;10.60;99.90
47114;DHT22;32867;51.556;6.832;2023-05-19T02:21:32;10.50;99.90
47114;DHT22;32867;51.556;6.832;2023-05-19T02:26:33;10.40;99.90
47114;DHT22;32867;51.556;6.832;2023-05-19T02:31:34;10.30;99.90
47114;DHT22;32867;51.556;6.832;2023-05-19T02:36:36;10.30;99.90
47114;DHT22;32867;51.556;6.832;2023-05-19T02:41:38;10.20;99.90
47114;DHT22;32867;51.556;6.832;2023-05-19T02:46:38;10.20;99.90
47114;DHT22;32867;51.556;6.832;2023-05-19T02:51:39;10.10;99.90
47114;DHT22;32867;51.556;6.832;2023-05-19T02:56:40;10.00;99.90
47114;DHT22;32867;51.556;6.832;2023-05-19T03:01:42;10.00;99.90
47114;DHT22;32867;51.556;6.832;2023-05-19T03:06:43;9.80;99.90
47114;DHT22;32867;51.556;6.832;2023-05-19T03:11:45;9.40;99.90
47114;DHT22;32867;51.556;6.832;2023-05-19T03:16:46;9.50;99.90
47114;DHT22;32867;51.556;6.832;2023-05-19T03:21:48;9.50;99.90
47114;DHT22;32867;51.556;6.832;2023-05-19T03:26:50;9.50;99.90
47114;DHT22;32867;51.556;6.832;2023-05-19T03:31:51;9.60;99.90
47114;DHT22;32867;51.556;6.832;2023-05-19T03:36:52;9.50;99.90
47114;DHT22;32867;51.556;6.832;2023-05-19T03:41:55;9.50;99.90
47114;DHT22;32867;51.556;6.832;2023-05-19T03:46:56;9.50;99.90
47114;DHT22;32867;51.556;6.832;2023-05-19T03:52:15;9.60;99.90
47114;DHT22;32867;51.556;6.832;2023-05-19T03:57:26;9.50;99.90
47114;DHT22;32867;51.556;6.832;2023-05-19T04:02:28;9.60;99.90
47114;DHT22;32867;51.556;6.832;2023-05-19T04:07:32;9.60;99.90
47114;DHT22;32867;51.556;6.832;2023-05-19T04:12:32;9.60;99.90
47114;DHT22;32867;51.556;6.832;2023-05-19T04:17:33;9.60;99.90
47114;DHT22;32867;51.556;6.832;2023-05-19T04:22:34;9.60;99.90
47114;DHT22;32867;51.556;6.832;2023-05-19T04:27:35;9.80;99.90
47114;DHT22;32867;51.556;6.832;2023-05-19T04:32:39;9.90;99.90
47114;DHT22;32867;51.556;6.832;2023-05-19T04:37:43;10.10;99.90
47114;DHT22;32867;51.556;6.832;2023-05-19T04:42:47;10.20;99.90
47114;DHT22;32867;51.556;6.832;2023-05-19T04:47:50;10.30;99.90
47114;DHT22;32867;51.556;6.832;2023-05-19T04:52:53;10.40;99.90
47114;DHT22;32867;51.556;6.832;2023-05-19T04:57:54;10.50;99.90
47114;DHT22;32867;51.556;6.832;2023-05-19T05:02:56;10.40;99.90
47114;DHT22;32867;51.556;6.832;2023-05-19T05:08:00;10.40;99.90
47114;DHT22;32867;51.556;6.832;2023-05-19T05:13:07;10.30;99.90
47114;DHT22;32867;51.556;6.832;2023-05-19T05:18:10;10.50;99.90
47114;DHT22;32867;51.556;6.832;2023-05-19T05:23:12;10.70;99.90
47114;DHT22;32867;51.556;6.832;2023-05-19T05:28:15;10.90;99.90
47114;DHT22;32867;51.556;6.832;2023-05-19T05:33:17;11.20;99.90
47114;DHT22;32867;51.556;6.832;2023-05-19T05:38:19;11.40;99.90
47114;DHT22;32867;51.556;6.832;2023-05-19T05:43:20;11.50;99.90
47114;DHT22;32867;51.556;6.832;2023-05-19T05:48:27;11.70;99.90
47114;DHT22;32867;51.556;6.832;2023-05-19T05:53:29;11.70;99.90
47114;DHT22;32867;51.556;6.832;2023-05-19T05:58:33;12.00;99.90
47114;DHT22;32867;51.556;6.832;2023-05-19T06:03:38;12.20;99.90
47114;DHT22;32867;51.556;6.832;2023-05-19T06:08:42;12.40;99.90
47114;DHT22;32867;51.556;6.832;2023-05-19T06:13:43;12.50;99.90
47114;DHT22;32867;51.556;6.832;2023-05-19T06:18:50;12.80;99.90
47114;DHT22;32867;51.556;6.832;2023-05-19T06:23:52;12.90;99.90
47114;DHT22;32867;51.556;6.832;2023-05-19T06:28:54;13.20;99.90
47114;DHT22;32867;51.556;6.832;2023-05-19T06:33:54;13.20;99.80
47114;DHT22;32867;51.556;6.832;2023-05-19T06:38:55;13.30;99.90
47114;DHT22;32867;51.556;6.832;2023-05-19T06:43:58;13.70;99.10
47114;DHT22;32867;51.556;6.832;2023-05-19T06:48:59;14.00;98.40
47114;DHT22;32867;51.556;6.832;2023-05-19T06:54:02;14.30;97.80
47114;DHT22;32867;51.556;6.832;2023-05-19T06:59:04;14.70;95.90
47114;DHT22;32867;51.556;6.832;2023-05-19T07:04:09;14.90;95.60
47114;DHT22;32867;51.556;6.832;2023-05-19T07:09:21;15.00;95.60
47114;DHT22;32867;51.556;6.832;2023-05-19T07:14:22;15.60;94.70
47114;DHT22;32867;51.556;6.832;2023-05-19T07:19:24;16.20;93.70
47114;DHT22;32867;51.556;6.832;2023-05-19T07:24:27;16.60;91.40
47114;DHT22;32867;51.556;6.832;2023-05-19T07:29:28;16.60;89.20
47114;DHT22;32867;51.556;6.832;2023-05-19T07:34:28;16.80;86.20
47114;DHT22;32867;51.556;6.832;2023-05-19T07:39:33;16.50;87.10
47114;DHT22;32867;51.556;6.832;2023-05-19T07:44:34;16.80;86.40
47114;DHT22;32867;51.556;6.832;2023-05-19T07:49:36;17.00;84.60
47114;DHT22;32867;51.556;6.832;2023-05-19T07:54:36;17.30;83.40
47114;DHT22;32867;51.556;6.832;2023-05-19T07:59:37;17.30;81.50
47114;DHT22;32867;51.556;6.832;2023-05-19T08:04:37;17.70;81.00
47114;DHT22;32867;51.556;6.832;2023-05-19T08:09:40;18.20;79.20
47114;DHT22;32867;51.556;6.832;2023-05-19T08:14:40;18.20;76.70
47114;DHT22;32867;51.556;6.832;2023-05-19T08:19:41;18.30;74.70
47114;DHT22;32867;51.556;6.832;2023-05-19T08:24:41;18.40;73.20
47114;DHT22;32867;51.556;6.832;2023-05-19T08:29:42;18.70;72.60
47114;DHT22;32867;51.556;6.832;2023-05-19T08:34:43;19.00;70.60
47114;DHT22;32867;51.556;6.832;2023-05-19T08:39:44;19.40;71.30
47114;DHT22;32867;51.556;6.832;2023-05-19T08:44:44;19.80;69.70
47114;DHT22;32867;51.556;6.832;2023-05-19T08:49:49;19.70;68.50
47114;DHT22;32867;51.556;6.832;2023-05-19T08:55:03;19.80;67.30
47114;DHT22;32867;51.556;6.832;2023-05-19T09:00:04;19.80;63.60
47114;DHT22;32867;51.556;6.832;2023-05-19T09:05:16;20.00;65.30
47114;DHT22;32867;51.556;6.832;2023-05-19T09:10:17;20.20;63.70
47114;DHT22;32867;51.556;6.832;2023-05-19T09:15:18;20.50;66.00
47114;DHT22;32867;51.556;6.832;2023-05-19T09:20:20;20.60;61.30
47114;DHT22;32867;51.556;6.832;2023-05-19T09:25:24;20.40;60.80
47114;DHT22;32867;51.556;6.832;2023-05-19T09:30:25;20.90;62.90
47114;DHT22;32867;51.556;6.832;2023-05-19T09:35:26;21.30;61.20
47114;DHT22;32867;51.556;6.832;2023-05-19T09:40:27;21.30;58.80
47114;DHT22;32867;51.556;6.832;2023-05-19T09:45:28;21.40;58.90
47114;DHT22;32867;51.556;6.832;2023-05-19T09:50:28;21.20;58.10
47114;DHT22;32867;51.556;6.832;2023-05-19T09:55:30;21.20;59.00
47114;DHT22;32867;51.556;6.832;2023-05-19T10:00:32;21.50;58.90
47114;DHT22;32867;51.556;6.832;2023-05-19T10:05:34;21.70;57.30
47114;DHT22;32867;51.556;6.832;2023-05-19T10:10:36;22.10;57.50
47114;DHT22;32867;51.556;6.832;2023-05-19T10:15:39;22.00;57.70
47114;DHT22;32867;51.556;6.832;2023-05-19T10:20:40;22.30;56.90
47114;DHT22;32867;51.556;6.832;2023-05-19T10:25:42;22.70;57.10
47114;DHT22;32867;51.556;6.832;2023-05-19T10:30:45;22.90;56.60
47114;DHT22;32867;51.556;6.832;2023-05-19T10:41:05;22.80;54.90
47114;DHT22;32867;51.556;6.832;2023-05-19T10:46:06;22.50;56.20
47114;DHT22;32867;51.556;6.832;2023-05-19T10:51:07;22.70;54.70
47114;DHT22;32867;51.556;6.832;2023-05-19T10:56:26;23.20;54.60
47114;DHT22;32867;51.556;6.832;2023-05-19T11:01:35;23.30;53.60
47114;DHT22;32867;51.556;6.832;2023-05-19T11:06:37;24.10;54.10
47114;DHT22;32867;51.556;6.832;2023-05-19T11:11:50;23.10;54.10
47114;DHT22;32867;51.556;6.832;2023-05-19T11:16:58;23.30;53.20
47114;DHT22;32867;51.556;6.832;2023-05-19T11:22:11;24.30;52.60
47114;DHT22;32867;51.556;6.832;2023-05-19T11:27:26;24.80;51.40
47114;DHT22;32867;51.556;6.832;2023-05-19T11:32:31;24.90;51.40
47114;DHT22;32867;51.556;6.832;2023-05-19T11:37:35;25.10;51.30
47114;DHT22;32867;51.556;6.832;2023-05-19T11:42:36;25.30;50.80
47114;DHT22;32867;51.556;6.832;2023-05-19T11:47:37;25.10;51.10
47114;DHT22;32867;51.556;6.832;2023-05-19T11:52:43;25.20;51.50
47114;DHT22;32867;51.556;6.832;2023-05-19T12:02:55;25.60;49.80
47114;DHT22;32867;51.556;6.832;2023-05-19T12:07:56;25.50;49.90
47114;DHT22;32867;51.556;6.832;2023-05-19T12:12:58;25.80;49.50
47114;DHT22;32867;51.556;6.832;2023-05-19T12:18:00;25.80;48.60
47114;DHT22;32867;51.556;6.832;2023-05-19T12:23:02;26.00;48.30
47114;DHT22;32867;51.556;6.832;2023-05-19T12:28:03;25.80;49.20
47114;DHT22;32867;51.556;6.832;2023-05-19T12:33:03;26.50;48.50
47114;DHT22;32867;51.556;6.832;2023-05-19T12:38:05;26.60;47.60
47114;DHT22;32867;51.556;6.832;2023-05-19T12:43:06;26.70;47.70
47114;DHT22;32867;51.556;6.832;2023-05-19T12:48:12;26.70;46.90
47114;DHT22;32867;51.556;6.832;2023-05-19T12:53:15;26.90;47.40
47114;DHT22;32867;51.556;6.832;2023-05-19T12:58:16;27.10;47.20
47114;DHT22;32867;51.556;6.832;2023-05-19T13:03:18;27.10;47.30
47114;DHT22;32867;51.556;6.832;2023-05-19T13:08:20;26.70;46.60
47114;DHT22;32867;51.556;6.832;2023-05-19T13:13:22;26.40;48.00
47114;DHT22;32867;51.556;6.832;2023-05-19T13:18:23;26.50;47.70
47114;DHT22;32867;51.556;6.832;2023-05-19T13:23:24;26.80;47.60
47114;DHT22;32867;51.556;6.832;2023-05-19T13:28:25;27.50;47.10
47114;DHT22;32867;51.556;6.832;2023-05-19T13:33:26;28.10;46.40
47114;DHT22;32867;51.556;6.832;2023-05-19T13:38:28;28.50;46.90
47114;DHT22;32867;51.556;6.832;2023-05-19T13:43:29;28.30;46.50
47114;DHT22;32867;51.556;6.832;2023-05-19T13:48:30;28.50;45.50
47114;DHT22;32867;51.556;6.832;2023-05-19T13:53:31;29.20;45.60
47114;DHT22;32867;51.556;6.832;2023-05-19T13:58:34;27.80;42.80
47114;DHT22;32867;51.556;6.832;2023-05-19T14:03:34;27.90;45.60
47114;DHT22;32867;51.556;6.832;2023-05-19T14:08:36;27.80;45.30
47114;DHT22;32867;51.556;6.832;2023-05-19T14:13:37;27.10;45.20
47114;DHT22;32867;51.556;6.832;2023-05-19T14:18:37;26.80;45.90
47114;DHT22;32867;51.556;6.832;2023-05-19T14:23:38;27.50;46.40
47114;DHT22;32867;51.556;6.832;2023-05-19T14:28:38;27.90;45.50
47114;DHT22;32867;51.556;6.832;2023-05-19T14:33:40;27.80;45.20
47114;DHT22;32867;51.556;6.832;2023-05-19T14:38:41;28.10;45.00
47114;DHT22;32867;51.556;6.832;2023-05-19T14:43:41;28.70;44.60
47114;DHT22;32867;51.556;6.832;2023-05-19T14:48:42;28.50;43.70
47114;DHT22;32867;51.556;6.832;2023-05-19T14:53:44;28.90;44.50
47114;DHT22;32867;51.556;6.832;2023-05-19T14:58:45;29.20;43.40
47114;DHT22;32867;51.556;6.832;2023-05-19T15:03:45;28.20;43.80
47114;DHT22;32867;51.556;6.832;2023-05-19T15:08:46;27.30;45.20
47114;DHT22;32867;51.556;6.832;2023-05-19T15:13:47;27.90;45.60
47114;DHT22;32867;51.556;6.832;2023-05-19T15:18:47;28.70;44.70
47114;DHT22;32867;51.556;6.832;2023-05-19T15:23:48;27.70;44.80
47114;DHT22;32867;51.556;6.832;2023-05-19T15:28:49;26.60;45.40
47114;DHT22;32867;51.556;6.832;2023-05-19T15:33:51;26.60;46.30
47114;DHT22;32867;51.556;6.832;2023-05-19T15:38:51;27.40;45.50
47114;DHT22;32867;51.556;6.832;2023-05-19T15:43:52;27.50;45.00
47114;DHT22;32867;51.556;6.832;2023-05-19T15:48:53;27.60;46.50
47114;DHT22;32867;51.556;6.832;2023-05-19T15:53:54;26.80;46.20
47114;DHT22;32867;51.556;6.832;2023-05-19T15:58:55;26.70;47.90
47114;DHT22;32867;51.556;6.832;2023-05-19T16:03:56;27.10;46.70
47114;DHT22;32867;51.556;6.832;2023-05-19T16:08:56;27.30;46.00
47114;DHT22;32867;51.556;6.832;2023-05-19T16:13:57;27.40;46.30
47114;DHT22;32867;51.556;6.832;2023-05-19T16:18:58;28.90;45.30
47114;DHT22;32867;51.556;6.832;2023-05-19T16:23:58;29.90;43.70
47114;DHT22;32867;51.556;6.832;2023-05-19T16:29:00;31.20;42.90
47114;DHT22;32867;51.556;6.832;2023-05-19T16:34:00;32.20;43.00
47114;DHT22;32867;51.556;6.832;2023-05-19T16:39:01;32.90;41.40
47114;DHT22;32867;51.556;6.832;2023-05-19T16:44:02;32.60;42.40
47114;DHT22;32867;51.556;6.832;2023-05-19T16:49:03;32.70;41.10
47114;DHT22;32867;51.556;6.832;2023-05-19T16:54:03;34.40;41.50
47114;DHT22;32867;51.556;6.832;2023-05-19T16:59:04;41.30;39.20
47114;DHT22;32867;51.556;6.832;2023-05-19T17:04:05;43.40;35.10
47114;DHT22;32867;51.556;6.832;2023-05-19T17:09:05;43.90;34.80
47114;DHT22;32867;51.556;6.832;2023-05-19T17:14:06;43.40;35.00
47114;DHT22;32867;51.556;6.832;2023-05-19T17:19:08;42.40;35.70
47114;DHT22;32867;51.556;6.832;2023-05-19T17:24:09;39.60;36.60
47114;DHT22;32867;51.556;6.832;2023-05-19T17:29:10;35.70;37.40
47114;DHT22;32867;51.556;6.832;2023-05-19T17:34:11;33.80;38.80
47114;DHT22;32867;51.556;6.832;2023-05-19T17:39:12;33.80;38.80
47114;DHT22;32867;51.556;6.832;2023-05-19T17:44:12;34.50;38.60
47114;DHT22;32867;51.556;6.832;2023-05-19T17:49:13;35.80;36.90
47114;DHT22;32867;51.556;6.832;2023-05-19T17:54:14;36.10;36.50
47114;DHT22;32867;51.556;6.832;2023-05-19T17:59:15;37.00;36.70
47114;DHT22;32867;51.556;6.832;2023-05-19T18:04:16;37.10;36.20
47114;DHT22;32867;51.556;6.832;2023-05-19T18:09:18;36.90;35.90
47114;DHT22;32867;51.556;6.832;2023-05-19T18:14:19;36.00;36.20
47114;DHT22;32867;51.556;6.832;2023-05-19T18:19:20;35.10;36.80
47114;DHT22;32867;51.556;6.832;2023-05-19T18:24:21;35.00;37.40
47114;DHT22;32867;51.556;6.832;2023-05-19T18:29:21;34.50;37.20
47114;DHT22;32867;51.556;6.832;2023-05-19T18:34:22;33.00;37.90
47114;DHT22;32867;51.556;6.832;2023-05-19T18:39:23;31.20;39.30
47114;DHT22;32867;51.556;6.832;2023-05-19T18:44:23;30.70;39.50
47114;DHT22;32867;51.556;6.832;2023-05-19T18:49:25;29.60;40.50
47114;DHT22;32867;51.556;6.832;2023-05-19T18:54:25;28.60;40.90
47114;DHT22;32867;51.556;6.832;2023-05-19T18:59:26;27.90;41.80
47114;DHT22;32867;51.556;6.832;2023-05-19T19:04:27;26.00;43.10
47114;DHT22;32867;51.556;6.832;2023-05-19T19:09:28;23.60;45.30
47114;DHT22;32867;51.556;6.832;2023-05-19T19:14:28;22.10;47.60
47114;DHT22;32867;51.556;6.832;2023-05-19T19:19:29;21.40;48.60
47114;DHT22;32867;51.556;6.832;2023-05-19T19:24:30;20.90;49.20
47114;DHT22;32867;51.556;6.832;2023-05-19T19:29:32;20.50;49.90
47114;DHT22;32867;51.556;6.832;2023-05-19T19:34:33;20.20;50.60
47114;DHT22;32867;51.556;6.832;2023-05-19T19:39:33;19.90;51.20
47114;DHT22;32867;51.556;6.832;2023-05-19T19:44:34;19.70;52.00
47114;DHT22;32867;51.556;6.832;2023-05-19T19:49:35;19.50;52.40
47114;DHT22;32867;51.556;6.832;2023-05-19T19:54:36;19.30;52.80
47114;DHT22;32867;51.556;6.832;2023-05-19T19:59:38;19.00;53.40
47114;DHT22;32867;51.556;6.832;2023-05-19T20:04:38;18.80;54.00
47114;DHT22;32867;51.556;6.832;2023-05-19T20:09:40;18.70;54.30
47114;DHT22;32867;51.556;6.832;2023-05-19T20:14:41;18.50;54.60
47114;DHT22;32867;51.556;6.832;2023-05-19T20:19:42;18.40;55.20
47114;DHT22;32867;51.556;6.832;2023-05-19T20:24:43;18.10;56.20
47114;DHT22;32867;51.556;6.832;2023-05-19T20:29:46;18.00;56.30
47114;DHT22;32867;51.556;6.832;2023-05-19T20:34:47;17.90;56.80
47114;DHT22;32867;51.556;6.832;2023-05-19T20:39:50;17.70;57.20
47114;DHT22;32867;51.556;6.832;2023-05-19T20:44:50;17.60;57.70
47114;DHT22;32867;51.556;6.832;2023-05-19T20:49:51;17.40;58.30
47114;DHT22;32867;51.556;6.832;2023-05-19T20:54:52;17.20;58.70
47114;DHT22;32867;51.556;6.832;2023-05-19T20:59:53;17.00;59.60
47114;DHT22;32867;51.556;6.832;2023-05-19T21:04:53;16.70;61.10
47114;DHT22;32867;51.556;6.832;2023-05-19T21:09:54;16.70;60.80
47114;DHT22;32867;51.556;6.832;2023-05-19T21:14:56;16.60;61.10
47114;DHT22;32867;51.556;6.832;2023-05-19T21:19:57;16.30;62.50
47114;DHT22;32867;51.556;6.832;2023-05-19T21:25:00;16.30;62.30
47114;DHT22;32867;51.556;6.832;2023-05-19T21:30:04;16.40;62.40
47114;DHT22;32867;51.556;6.832;2023-05-19T21:35:05;16.30;63.00
47114;DHT22;32867;51.556;6.832;2023-05-19T21:40:08;16.20;63.30
47114;DHT22;32867;51.556;6.832;2023-05-19T21:45:09;16.20;63.60
47114;DHT22;32867;51.556;6.832;2023-05-19T21:50:10;16.00;64.10
47114;DHT22;32867;51.556;6.832;2023-05-19T21:55:10;16.00;64.70
47114;DHT22;32867;51.556;6.832;2023-05-19T22:00:11;15.90;65.00
47114;DHT22;32867;51.556;6.832;2023-05-19T22:05:12;15.90;65.30
47114;DHT22;32867;51.556;6.832;2023-05-19T22:10:14;15.80;65.40
47114;DHT22;32867;51.556;6.832;2023-05-19T22:15:15;15.70;65.60
47114;DHT22;32867;51.556;6.832;2023-05-19T22:20:15;15.70;66.10
47114;DHT22;32867;51.556;6.832;2023-05-19T22:25:16;15.60;66.60
47114;DHT22;32867;51.556;6.832;2023-05-19T22:30:17;15.50;67.00
47114;DHT22;32867;51.556;6.832;2023-05-19T22:35:19;15.50;67.40
47114;DHT22;32867;51.556;6.832;2023-05-19T22:40:20;15.40;67.30
47114;DHT22;32867;51.556;6.832;2023-05-19T22:45:20;15.30;67.70
47114;DHT22;32867;51.556;6.832;2023-05-19T22:50:21;15.30;68.40
47114;DHT22;32867;51.556;6.832;2023-05-19T22:55:22;15.30;68.50
47114;DHT22;32867;51.556;6.832;2023-05-19T23:00:23;15.20;68.60
47114;DHT22;32867;51.556;6.832;2023-05-19T23:05:24;15.10;68.80
47114;DHT22;32867;51.556;6.832;2023-05-19T23:10:25;15.00;70.00
47114;DHT22;32867;51.556;6.832;2023-05-19T23:15:26;14.90;70.10
47114;DHT22;32867;51.556;6.832;2023-05-19T23:20:27;14.90;70.10
47114;DHT22;32867;51.556;6.832;2023-05-19T23:25:27;14.90;70.20
47114;DHT22;32867;51.556;6.832;2023-05-19T23:30:28;14.80;71.10
47114;DHT22;32867;51.556;6.832;2023-05-19T23:35:33;14.70;71.30
47114;DHT22;32867;51.556;6.832;2023-05-19T23:40:35;14.70;71.80
47114;DHT22;32867;51.556;6.832;2023-05-19T23:45:36;14.60;72.10
47114;DHT22;32867;51.556;6.832;2023-05-19T23:50:37;14.50;72.80
47114;DHT22;32867;51.556;6.832;2023-05-19T23:55:38;14.50;73.50
